KEVU

Northwest Missouri Regional Airport

Maryville, Missouri, USA
METAR KEVU 231435Z AUTO 14007KT 10SM CLR 27/13 A3010 RMK AO2
Observed Flight Rules
May-23 @ 14:35 UTC (35 minutes ago) Visual Flight Rules
Wind Visibility Clouds
140° at 7 knots 10 miles
  • Clear skies
Temperatures Readings
Current 27°C / 81°F
Dewpoint 13°C / 55°F
Humidity 42%
Altimeter 30.1" Hg
Pressure 1019 hPa
Elevation 349
METAR KEVU 231435Z AUTO 14007KT 10SM CLR 27/13 A3010 RMK AO2
Observed Flight Rules
May-23 @ 14:35 UTC
(35 minutes ago)
VFR
Wind Visibility
140° at 7 knots 10 miles
Clouds
  • Clear skies
Temperature Dewpoint
27°C / 81°F 13°C / 55°F
Humidity Altimeter Pressure
42% 30.1" Hg 1019 hPa